createdAt,value
2023-02-26T00:02:15.801Z,1004.96
2023-02-26T00:07:16.022Z,1005.02
2023-02-26T00:12:14.207Z,1005.07
2023-02-26T00:17:14.723Z,1005.08
2023-02-26T00:22:12.765Z,1005.25
2023-02-26T00:27:11.956Z,1005.38
2023-02-26T00:32:11.251Z,1005.46
2023-02-26T00:37:10.474Z,1005.53
2023-02-26T00:42:09.644Z,1005.60
2023-02-26T00:47:09.810Z,1005.69
2023-02-26T00:52:07.984Z,1005.69
2023-02-26T00:57:08.214Z,1005.71
2023-02-26T01:02:06.376Z,1005.71
2023-02-26T01:07:06.534Z,1005.60
2023-02-26T01:12:06.746Z,1005.51
2023-02-26T01:17:03.921Z,1005.49
2023-02-26T01:22:03.124Z,1005.55
2023-02-26T01:27:02.295Z,1005.47
2023-02-26T01:32:01.605Z,1005.48
2023-02-26T01:37:01.672Z,1005.48
2023-02-26T01:42:00.866Z,1005.44
2023-02-26T01:46:59.079Z,1005.39
2023-02-26T01:51:58.312Z,1005.36
2023-02-26T01:56:58.518Z,1005.17
2023-02-26T02:01:57.760Z,1005.18
2023-02-26T02:06:55.949Z,1005.21
2023-02-26T02:11:55.166Z,1005.18
2023-02-26T02:16:55.371Z,1005.23
2023-02-26T02:21:53.554Z,1005.17
2023-02-26T02:26:52.786Z,1005.13
2023-02-26T02:31:53.140Z,1005.18
2023-02-26T02:36:51.209Z,1005.16
2023-02-26T02:41:50.412Z,1005.19
2023-02-26T02:46:49.660Z,1005.20
2023-02-26T02:51:48.947Z,1005.19
2023-02-26T02:56:49.146Z,1005.24
2023-02-26T03:01:47.327Z,1005.34
2023-02-26T03:06:46.496Z,1005.36
2023-02-26T03:11:46.689Z,1005.34
2023-02-26T03:16:45.914Z,1005.38
2023-02-26T03:21:46.126Z,1005.35
2023-02-26T03:26:44.302Z,1005.39
2023-02-26T03:31:42.680Z,1005.38
2023-02-26T03:36:41.889Z,1005.38
2023-02-26T03:41:41.195Z,1005.44
2023-02-26T03:46:40.515Z,1005.41
2023-02-26T03:51:39.813Z,1005.30
2023-02-26T03:56:39.136Z,1005.39
2023-02-26T04:01:38.463Z,1005.38
2023-02-26T04:06:38.791Z,1005.40
2023-02-26T04:11:38.116Z,1005.43
2023-02-26T04:16:38.435Z,1005.38
2023-02-26T04:21:36.735Z,1005.37
2023-02-26T04:26:36.031Z,1005.36
2023-02-26T04:31:34.362Z,1005.50
2023-02-26T04:36:34.513Z,1005.56
2023-02-26T04:41:33.810Z,1005.55
2023-02-26T04:46:32.149Z,1005.53
2023-02-26T04:51:30.253Z,1005.56
2023-02-26T04:56:30.579Z,1005.57
2023-02-26T05:01:29.913Z,1005.62
2023-02-26T05:06:29.240Z,1005.64
2023-02-26T05:11:29.547Z,1005.72
2023-02-26T05:16:28.277Z,1005.67
2023-02-26T05:21:27.153Z,1005.65
2023-02-26T05:26:26.735Z,1005.58
2023-02-26T05:31:26.870Z,1005.59
2023-02-26T05:36:27.264Z,1005.62
2023-02-26T05:41:24.198Z,1005.62
2023-02-26T05:46:23.759Z,1005.69
2023-02-26T05:51:22.814Z,1005.78
2023-02-26T05:56:23.297Z,1005.87
2023-02-26T06:01:21.353Z,1005.88
2023-02-26T06:06:20.659Z,1005.93
2023-02-26T06:11:19.994Z,1006.00
2023-02-26T06:16:18.324Z,1006.03
2023-02-26T06:21:18.424Z,1006.08
2023-02-26T06:26:17.731Z,1006.13
2023-02-26T06:31:18.092Z,1006.17
2023-02-26T06:36:16.211Z,1006.24
2023-02-26T06:41:15.530Z,1006.30
2023-02-26T06:46:15.979Z,1006.33
2023-02-26T06:51:14.092Z,1006.36
2023-02-26T06:56:15.413Z,1006.44
2023-02-26T07:01:13.796Z,1006.52
2023-02-26T07:06:27.039Z,1006.60
2023-02-26T07:11:11.129Z,1006.71
2023-02-26T07:16:10.462Z,1006.70
2023-02-26T07:21:10.691Z,1006.77
2023-02-26T07:26:08.995Z,1006.77
2023-02-26T07:31:08.273Z,1006.73
2023-02-26T07:36:08.420Z,1006.73
2023-02-26T07:41:06.712Z,1006.75
2023-02-26T07:46:06.033Z,1006.68
2023-02-26T07:51:05.351Z,1006.72
2023-02-26T07:56:04.645Z,1006.77
2023-02-26T08:01:04.993Z,1006.71
2023-02-26T08:06:05.103Z,1006.75
2023-02-26T08:11:02.405Z,1006.76
2023-02-26T08:16:02.816Z,1006.80
2023-02-26T08:21:00.918Z,1006.84
2023-02-26T08:26:00.278Z,1006.83
2023-02-26T08:31:00.663Z,1006.94
2023-02-26T08:36:02.899Z,1006.90
2023-02-26T08:40:58.013Z,1006.79
2023-02-26T08:45:58.336Z,1006.86
2023-02-26T08:50:56.673Z,1006.84
2023-02-26T08:55:55.820Z,1006.88
2023-02-26T09:00:55.009Z,1006.97
2023-02-26T09:05:54.135Z,1007.00
2023-02-26T09:10:53.445Z,1006.97
2023-02-26T09:15:52.794Z,1006.99
2023-02-26T09:20:51.912Z,1006.93
2023-02-26T09:25:51.230Z,1006.88
2023-02-26T09:30:52.552Z,1007.06
2023-02-26T09:35:50.880Z,1007.11
2023-02-26T09:40:50.198Z,1007.10
2023-02-26T09:45:48.577Z,1007.11
2023-02-26T09:50:47.730Z,1007.09
2023-02-26T09:55:46.862Z,1007.04
2023-02-26T10:00:46.220Z,1007.20
2023-02-26T10:05:45.367Z,1007.20
2023-02-26T10:10:45.547Z,1007.22
2023-02-26T10:15:43.691Z,1007.24
2023-02-26T10:20:42.866Z,1007.12
2023-02-26T10:25:44.018Z,1007.09
2023-02-26T10:30:41.392Z,1007.08
2023-02-26T10:35:40.581Z,1007.10
2023-02-26T10:40:39.889Z,1007.27
2023-02-26T10:45:39.252Z,1007.12
2023-02-26T10:50:39.001Z,1007.22
2023-02-26T10:55:37.338Z,1007.14
2023-02-26T11:00:41.773Z,1007.09
2023-02-26T11:05:36.019Z,1007.20
2023-02-26T11:10:35.137Z,1007.26
2023-02-26T11:15:34.549Z,1007.23
2023-02-26T11:20:34.935Z,1007.26
2023-02-26T11:25:34.408Z,1007.20
2023-02-26T11:30:32.174Z,1007.19
2023-02-26T11:35:32.542Z,1007.17
2023-02-26T11:40:30.529Z,1007.08
2023-02-26T11:45:30.962Z,1007.07
2023-02-26T11:50:28.954Z,1007.14
2023-02-26T11:55:28.291Z,1007.18
2023-02-26T12:00:27.943Z,1007.25
2023-02-26T12:05:26.824Z,1007.32
2023-02-26T12:10:26.123Z,1007.45
2023-02-26T12:15:25.413Z,1007.34
2023-02-26T12:20:24.789Z,1007.26
2023-02-26T12:25:24.906Z,1007.38
2023-02-26T12:30:23.267Z,1007.28
2023-02-26T12:35:22.690Z,1007.33
2023-02-26T12:40:21.834Z,1007.22
2023-02-26T12:45:22.356Z,1007.27
2023-02-26T12:50:21.116Z,1007.23
2023-02-26T12:55:19.576Z,1007.21
2023-02-26T13:00:19.063Z,1007.22
2023-02-26T13:05:18.907Z,1007.22
2023-02-26T13:10:18.318Z,1007.24
2023-02-26T13:15:17.316Z,1007.31
2023-02-26T13:20:15.973Z,1007.28
2023-02-26T13:25:15.090Z,1007.35
2023-02-26T13:30:14.429Z,1007.50
2023-02-26T13:35:15.339Z,1007.36
2023-02-26T13:40:13.841Z,1007.48
2023-02-26T13:45:11.743Z,1007.56
2023-02-26T13:50:12.147Z,1007.62
2023-02-26T13:55:10.243Z,1007.38
2023-02-26T14:00:09.723Z,1007.44
2023-02-26T14:05:09.639Z,1007.42
2023-02-26T14:10:08.073Z,1007.53
2023-02-26T14:15:08.542Z,1007.55
2023-02-26T14:20:07.773Z,1007.66
2023-02-26T14:25:06.055Z,1007.68
2023-02-26T14:30:04.457Z,1007.70
2023-02-26T14:35:05.677Z,1007.68
2023-02-26T14:40:04.003Z,1007.69
2023-02-26T14:45:04.813Z,1007.76
2023-02-26T14:50:02.388Z,1007.69
2023-02-26T14:55:01.668Z,1007.55
2023-02-26T15:00:00.899Z,1007.62
2023-02-26T15:04:59.864Z,1007.83
2023-02-26T15:09:59.513Z,1007.86
2023-02-26T15:14:59.884Z,1007.82
2023-02-26T15:20:00.030Z,1007.87
2023-02-26T15:24:57.996Z,1007.96
2023-02-26T15:29:56.444Z,1008.01
2023-02-26T15:34:55.809Z,1008.05
2023-02-26T15:39:54.883Z,1008.16
2023-02-26T15:44:57.073Z,1008.29
2023-02-26T15:49:53.420Z,1008.34
2023-02-26T15:54:52.793Z,1008.32
2023-02-26T15:59:51.831Z,1008.51
2023-02-26T16:04:52.629Z,1008.53
2023-02-26T16:09:52.238Z,1008.64
2023-02-26T16:14:49.564Z,1008.57
2023-02-26T16:19:48.649Z,1008.56
2023-02-26T16:24:48.651Z,1008.66
2023-02-26T16:29:47.311Z,1008.71
2023-02-26T16:34:47.405Z,1008.63
2023-02-26T16:39:45.425Z,1008.71
2023-02-26T16:44:45.105Z,1008.85
2023-02-26T16:49:46.894Z,1008.95
2023-02-26T16:54:43.445Z,1008.97
2023-02-26T16:59:42.805Z,1009.24
2023-02-26T17:04:41.925Z,1009.20
2023-02-26T17:09:40.911Z,1009.36
2023-02-26T17:14:40.593Z,1009.51
2023-02-26T17:19:40.383Z,1009.50
2023-02-26T17:24:38.645Z,1009.45
2023-02-26T17:29:38.244Z,1009.47
2023-02-26T17:34:37.582Z,1009.46
2023-02-26T17:39:37.851Z,1009.57
2023-02-26T17:44:35.991Z,1009.54
2023-02-26T17:49:35.242Z,1009.64
2023-02-26T17:54:34.708Z,1009.79
2023-02-26T17:59:33.868Z,1009.70
2023-02-26T18:04:35.811Z,1009.74
2023-02-26T18:09:32.873Z,1009.62
2023-02-26T18:14:31.357Z,1009.73
2023-02-26T18:19:32.391Z,1009.77
2023-02-26T18:24:29.763Z,1010.10
2023-02-26T18:29:28.987Z,1010.05
2023-02-26T18:34:29.125Z,1010.05
2023-02-26T18:39:29.486Z,1010.08
2023-02-26T18:44:26.796Z,1009.94
2023-02-26T18:49:25.032Z,1009.80
2023-02-26T18:54:25.198Z,1009.87
2023-02-26T18:59:26.203Z,1009.86
2023-02-26T19:04:23.272Z,1009.85
2023-02-26T19:09:23.960Z,1009.84
2023-02-26T19:14:23.319Z,1009.75
2023-02-26T19:19:21.933Z,1009.84
2023-02-26T19:24:23.066Z,1009.94
2023-02-26T19:29:20.932Z,1009.88
2023-02-26T19:34:19.677Z,1009.98
2023-02-26T19:39:19.112Z,1010.01
2023-02-26T19:44:18.496Z,1010.08
2023-02-26T19:49:17.644Z,1010.11
2023-02-26T19:54:20.233Z,1010.03
2023-02-26T19:59:14.856Z,1009.98
2023-02-26T20:04:15.340Z,1010.05
2023-02-26T20:09:12.504Z,1010.18
2023-02-26T20:14:12.681Z,1010.17
2023-02-26T20:19:10.818Z,1010.22
2023-02-26T20:24:12.242Z,1010.24
2023-02-26T20:29:10.439Z,1010.11
2023-02-26T20:34:10.662Z,1010.27
2023-02-26T20:39:09.594Z,1010.22
2023-02-26T20:44:08.139Z,1010.22
2023-02-26T20:49:08.386Z,1010.21
2023-02-26T20:54:06.593Z,1010.23
2023-02-26T20:59:05.780Z,1010.32
2023-02-26T21:04:05.944Z,1010.32
2023-02-26T21:09:02.943Z,1010.27
2023-02-26T21:14:05.236Z,1010.26
2023-02-26T21:19:02.550Z,1010.36
2023-02-26T21:24:04.544Z,1010.30
2023-02-26T21:29:00.227Z,1010.25
2023-02-26T21:34:23.722Z,1010.31
2023-02-26T21:39:00.356Z,1010.33
2023-02-26T21:43:58.654Z,1010.32
2023-02-26T21:48:59.633Z,1010.37
2023-02-26T21:53:56.968Z,1010.35
2023-02-26T21:58:55.082Z,1010.41
2023-02-26T22:03:55.413Z,1010.40
2023-02-26T22:08:54.718Z,1010.39
2023-02-26T22:13:54.057Z,1010.42
2023-02-26T22:18:55.202Z,1010.43
2023-02-26T22:23:52.535Z,1010.42
2023-02-26T22:28:51.668Z,1010.40
2023-02-26T22:33:50.827Z,1010.45
2023-02-26T22:38:49.966Z,1010.39
2023-02-26T22:43:49.127Z,1010.38
2023-02-26T22:48:49.280Z,1010.43
2023-02-26T22:53:48.400Z,1010.40
2023-02-26T22:58:48.719Z,1010.30
2023-02-26T23:03:46.056Z,1010.38
2023-02-26T23:08:46.181Z,1010.36
2023-02-26T23:13:44.471Z,1010.46
2023-02-26T23:18:44.777Z,1010.48
2023-02-26T23:23:44.073Z,1010.47
2023-02-26T23:28:43.346Z,1010.40
2023-02-26T23:33:41.640Z,1010.48
2023-02-26T23:38:40.945Z,1010.42
2023-02-26T23:43:40.263Z,1010.31
2023-02-26T23:48:39.651Z,1010.63
2023-02-26T23:53:40.820Z,1010.68
2023-02-26T23:58:38.962Z,1010.74
